Disclaimer

Please do not use the information listed here in-flight or in-navigation, as they are not provided to us by the airports but are provided by volunteers, so they might be outdated.

Search


Regions


Airport information page

No radio frequency information is available.

Airport informations:
Latitude: 52° 06' 30.00" N
Longitude: 023° 53' 53.00" E
Elevation: 468 feet - 143 meters
Operating hours: Remarks
Operating agency: Civil government, landing fees and diplomatic clearance may be required
Timezone: UTC+2(+3DT)
Fuel: N/A

Runway information:
11/29 - 8596 x 138 feet< - >2620 x 42 meters

Recent METARs:
UMBB 180912Z 24003MPS 1200 R29/1200 SN BR OVC012 M02/M04 Q1027 R29/590535 NOSIG
UMBB 181000Z 23003MPS 0900 R29/0900 +SN BR OVC008 M02/M03 Q1025 R29/SNOCLO NOSIG
UMBB 181030Z 23003MPS 0900 R29/0900 +SN BR OVC007 M02/M03 Q1025 R29/SNOCLO NOSIG

Airport on the map: